Time;durP1;ratioP1;P1;durP2;ratioP2;P2;SDS_P1;SDS_P2;PMS_P1;PMS_P2;Temp;Humidity;BMP_temperature;BMP_pressure;BME280_temperature;BME280_humidity;BME280_pressure;Samples;Min_cycle;Max_cycle;Signal;HPM_P1;HPM_P2
2023/01/07 00:01:41;;;;;;;0.40;0.40;;;;;;;6.79;100.00;98805.03;5039677;28;20466;-76
2023/01/07 00:04:10;;;;;;;0.40;0.40;;;;;;;6.80;100.00;98799.50;5056137;28;20024;-75
2023/01/07 00:06:38;;;;;;;0.30;0.30;;;;;;;6.80;100.00;98802.16;5072900;28;20492;-76
2023/01/07 00:09:05;;;;;;;0.40;0.40;;;;;;;6.77;100.00;98797.22;5056106;28;20040;-76
2023/01/07 00:11:33;;;;;;;0.40;0.40;;;;;;;6.79;100.00;98789.00;5039561;28;20071;-76
2023/01/07 00:14:00;;;;;;;0.40;0.40;;;;;;;6.74;100.00;98780.75;5039228;28;20056;-75
2023/01/07 00:16:28;;;;;;;0.40;0.40;;;;;;;6.72;100.00;98780.13;5056107;28;20040;-76
2023/01/07 00:18:55;;;;;;;0.40;0.40;;;;;;;6.70;100.00;98779.53;5039484;28;20485;-76
2023/01/07 00:21:23;;;;;;;0.40;0.40;;;;;;;6.67;100.00;98782.56;5039206;28;20428;-76
2023/01/07 00:23:53;;;;;;;0.35;0.35;;;;;;;6.63;100.00;98762.63;5072546;28;20025;-75
2023/01/07 00:26:22;;;;;;;0.40;0.40;;;;;;;6.59;100.00;98763.03;5055800;28;20028;-75
2023/01/07 00:28:49;;;;;;;0.40;0.40;;;;;;;6.56;100.00;98754.59;5056073;28;20028;-75
2023/01/07 00:31:21;;;;;;;0.40;0.40;;;;;;;6.52;100.00;98748.00;5055807;28;20035;-74
2023/01/07 00:34:05;;;;;;;0.40;0.40;;;;;;;6.48;100.00;98744.91;5072080;28;20055;-76
2023/01/07 00:36:42;;;;;;;0.40;0.40;;;;;;;6.44;100.00;98743.66;5041665;28;20116;-75
2023/01/07 00:39:14;;;;;;;0.50;0.50;;;;;;;6.42;100.00;98737.69;5055377;28;20035;-75
2023/01/07 00:42:53;;;;;;;0.40;0.40;;;;;;;6.37;100.00;98732.13;5039087;28;20070;-75
2023/01/07 00:44:27;;;;;;;0.40;0.40;;;;;;;6.28;100.00;98733.31;5058512;28;20028;-75
2023/01/07 00:46:52;;;;;;;0.40;0.40;;;;;;;6.20;100.00;98725.47;5055548;28;20051;-75
2023/01/07 00:49:18;;;;;;;0.40;0.40;;;;;;;6.08;100.00;98720.69;5039211;28;20462;-75
2023/01/07 00:51:44;;;;;;;0.40;0.40;;;;;;;6.03;100.00;98727.63;5043053;28;20032;-75
2023/01/07 00:54:09;;;;;;;0.40;0.40;;;;;;;5.94;100.00;98713.63;5043146;28;20072;-74
2023/01/07 00:56:35;;;;;;;0.40;0.40;;;;;;;5.87;100.00;98716.22;5043209;28;20044;-74
2023/01/07 00:59:01;;;;;;;0.40;0.40;;;;;;;5.83;100.00;98712.31;5043065;28;20054;-75
2023/01/07 01:01:26;;;;;;;0.30;0.30;;;;;;;5.78;100.00;98700.59;5059502;28;20032;-75
2023/01/07 01:03:52;;;;;;;0.40;0.40;;;;;;;5.74;100.00;98697.47;5043082;28;20074;-75
2023/01/07 01:06:18;;;;;;;0.47;0.47;;;;;;;5.61;100.00;98682.22;5042941;28;20509;-75
2023/01/07 01:08:45;;;;;;;0.40;0.40;;;;;;;5.49;100.00;98679.25;5042969;28;20147;-75
2023/01/07 01:11:13;;;;;;;0.43;0.43;;;;;;;5.46;100.00;98692.97;5076103;28;20033;-75
2023/01/07 01:13:39;;;;;;;0.40;0.40;;;;;;;5.39;100.00;98685.94;5075774;28;20032;-74
2023/01/07 01:16:13;;;;;;;0.43;0.43;;;;;;;5.33;100.00;98689.38;5059407;28;20032;-75
2023/01/07 01:18:39;;;;;;;0.40;0.40;;;;;;;5.25;100.00;98685.84;5059320;28;20041;-75
2023/01/07 01:21:08;;;;;;;0.40;0.40;;;;;;;5.20;100.00;98685.59;5075823;28;20115;-75
2023/01/07 01:23:34;;;;;;;0.40;0.40;;;;;;;5.13;100.00;98679.38;5058743;28;20417;-76
2023/01/07 01:26:12;;;;;;;0.40;0.40;;;;;;;5.05;100.00;98659.03;5042543;28;20040;-75
2023/01/07 01:28:38;;;;;;;0.40;0.40;;;;;;;5.10;100.00;98661.09;5042974;28;20183;-75
2023/01/07 01:31:04;;;;;;;0.40;0.40;;;;;;;5.13;100.00;98658.06;5058722;28;20025;-75
2023/01/07 01:33:30;;;;;;;0.50;0.50;;;;;;;5.10;100.00;98665.63;5075394;28;20327;-74
2023/01/07 01:35:55;;;;;;;0.40;0.40;;;;;;;5.01;100.00;98655.09;5042470;28;20033;-75
2023/01/07 01:38:21;;;;;;;0.40;0.40;;;;;;;5.01;100.00;98651.63;5042387;28;20433;-74
2023/01/07 01:40:47;;;;;;;0.50;0.50;;;;;;;4.98;100.00;98639.50;5042061;28;20028;-76
2023/01/07 01:43:34;;;;;;;0.40;0.40;;;;;;;4.92;100.00;98631.44;5041247;28;20128;-74
2023/01/07 01:46:27;;;;;;;0.40;0.40;;;;;;;4.77;100.00;98615.56;5057063;28;20028;-75
2023/01/07 01:49:00;;;;;;;0.40;0.40;;;;;;;4.64;100.00;98610.94;5033197;28;20044;-75
2023/01/07 01:51:33;;;;;;;0.40;0.40;;;;;;;4.54;100.00;98605.91;5041042;28;20029;-75
2023/01/07 01:54:00;;;;;;;0.40;0.40;;;;;;;4.50;100.00;98622.44;5073768;28;20032;-75
2023/01/07 01:56:31;;;;;;;0.50;0.50;;;;;;;4.49;100.00;98616.31;5057456;28;20032;-76
2023/01/07 01:59:04;;;;;;;0.40;0.40;;;;;;;4.49;100.00;98604.84;5072860;28;20394;-75
2023/01/07 02:01:31;;;;;;;0.47;0.47;;;;;;;4.57;100.00;98612.69;5056983;28;20028;-76
2023/01/07 02:03:56;;;;;;;0.40;0.40;;;;;;;4.65;100.00;98609.09;5073936;28;20116;-75
2023/01/07 02:06:29;;;;;;;0.40;0.40;;;;;;;4.75;100.00;98615.75;5040783;28;20442;-76
2023/01/07 02:08:54;;;;;;;0.40;0.40;;;;;;;4.78;100.00;98593.22;5073807;28;20344;-75
2023/01/07 02:11:48;;;;;;;0.40;0.40;;;;;;;4.81;100.00;98598.16;5056808;28;20043;-76
2023/01/07 02:14:31;;;;;;;0.40;0.40;;;;;;;4.81;100.00;98599.00;5073551;28;20417;-75
2023/01/07 02:17:42;;;;;;;0.40;0.40;;;;;;;4.73;100.00;98590.31;5057038;28;20063;-75
2023/01/07 02:20:22;;;;;;;0.30;0.30;;;;;;;4.65;100.00;98599.25;4999758;28;20033;-76
2023/01/07 02:23:24;;;;;;;0.40;0.40;;;;;;;4.58;100.00;98599.22;5069053;28;20052;-75
2023/01/07 02:26:15;;;;;;;0.40;0.40;;;;;;;4.48;100.00;98587.22;5056967;28;20036;-76
2023/01/07 02:28:58;;;;;;;0.40;0.40;;;;;;;4.41;100.00;98581.84;5073177;28;20033;-76
2023/01/07 02:31:53;;;;;;;0.40;0.40;;;;;;;4.34;100.00;98578.28;5056612;28;20356;-75
2023/01/07 02:34:25;;;;;;;0.40;0.40;;;;;;;4.22;100.00;98575.31;5044016;28;20029;-76
2023/01/07 02:37:25;;;;;;;0.40;0.40;;;;;;;4.04;100.00;98569.56;5073169;28;20390;-76
2023/01/07 02:40:03;;;;;;;0.40;0.40;;;;;;;3.80;100.00;98557.44;5054211;28;20044;-75
2023/01/07 02:42:53;;;;;;;0.40;0.40;;;;;;;3.74;100.00;98574.97;5028790;28;1277276;-75
2023/01/07 02:45:32;;;;;;;0.40;0.40;;;;;;;3.53;100.00;98554.44;5074330;28;20044;-75
2023/01/07 02:48:07;;;;;;;0.50;0.50;;;;;;;3.55;100.00;98565.72;5041109;28;20047;-75
2023/01/07 02:50:33;;;;;;;0.40;0.40;;;;;;;3.54;100.00;98558.75;5057195;28;20111;-76
2023/01/07 02:52:58;;;;;;;0.40;0.40;;;;;;;3.44;100.00;98543.09;5057252;28;20131;-75
2023/01/07 02:55:51;;;;;;;0.40;0.40;;;;;;;3.51;100.00;98557.28;5057412;28;20148;-76
2023/01/07 02:58:38;;;;;;;0.40;0.40;;;;;;;3.53;100.00;98543.81;5074928;28;20036;-76
2023/01/07 03:01:20;;;;;;;0.40;0.40;;;;;;;3.57;100.00;98544.25;5057247;28;20363;-76
2023/01/07 03:03:57;;;;;;;0.50;0.50;;;;;;;3.48;100.00;98540.88;5074181;28;20032;-76
2023/01/07 03:06:35;;;;;;;0.45;0.45;;;;;;;3.50;100.00;98550.31;5057342;28;20039;-76
2023/01/07 03:09:25;;;;;;;0.50;0.50;;;;;;;3.49;100.00;98540.72;5073555;28;20032;-76
2023/01/07 03:12:03;;;;;;;0.40;0.40;;;;;;;3.55;100.00;98528.53;5045954;28;20110;-76
2023/01/07 03:14:59;;;;;;;0.50;0.50;;;;;;;3.59;100.00;98528.97;5056859;28;20560;-76
2023/01/07 03:17:49;;;;;;;0.50;0.50;;;;;;;3.57;100.00;98523.00;5062504;28;20511;-76
2023/01/07 03:20:15;;;;;;;0.40;0.40;;;;;;;3.45;100.00;98527.97;5048657;28;20390;-76
2023/01/07 03:22:45;;;;;;;0.45;0.45;;;;;;;3.36;100.00;98521.09;5057143;28;20466;-76
2023/01/07 03:25:12;;;;;;;0.40;0.40;;;;;;;3.38;100.00;98521.75;5073474;28;20113;-75
2023/01/07 03:27:38;;;;;;;0.40;0.40;;;;;;;3.45;100.00;98518.16;5040289;28;20036;-76
2023/01/07 03:30:07;;;;;;;0.50;0.50;;;;;;;3.49;100.00;98513.31;5040214;28;20060;-75
2023/01/07 03:32:41;;;;;;;0.50;0.50;;;;;;;3.45;100.00;98501.41;5056579;28;20111;-76
2023/01/07 03:35:07;;;;;;;0.40;0.40;;;;;;;3.49;100.00;98497.38;5040023;28;20436;-75
2023/01/07 03:37:33;;;;;;;0.50;0.50;;;;;;;3.56;100.00;98500.94;5056534;28;20033;-75
2023/01/07 03:40:05;;;;;;;0.50;0.50;;;;;;;3.51;100.00;98488.19;5056649;28;20522;-76
2023/01/07 03:42:40;;;;;;;0.40;0.40;;;;;;;3.58;100.00;98492.78;5056484;28;20441;-76
2023/01/07 03:45:12;;;;;;;0.50;0.50;;;;;;;3.66;100.00;98490.00;5073356;28;20094;-76
2023/01/07 03:47:40;;;;;;;0.50;0.50;;;;;;;3.71;100.00;98485.78;5056553;28;20547;-76
2023/01/07 03:50:06;;;;;;;0.40;0.40;;;;;;;3.71;100.00;98474.34;5039887;28;20553;-75
2023/01/07 03:52:32;;;;;;;0.40;0.40;;;;;;;3.79;100.00;98474.22;5056297;28;20474;-76
2023/01/07 03:54:57;;;;;;;0.40;0.40;;;;;;;3.74;100.00;98471.28;5072735;28;20086;-76
2023/01/07 03:57:23;;;;;;;0.50;0.50;;;;;;;3.73;100.00;98461.66;5056366;28;20052;-75
2023/01/07 03:59:49;;;;;;;0.50;0.50;;;;;;;3.78;100.00;98459.25;5039819;28;20059;-76
2023/01/07 04:02:15;;;;;;;0.40;0.40;;;;;;;3.76;100.00;98450.69;5039700;28;20412;-75
2023/01/07 04:04:40;;;;;;;0.50;0.50;;;;;;;3.72;100.00;98436.91;5039674;28;20146;-76
2023/01/07 04:07:06;;;;;;;0.40;0.40;;;;;;;3.76;100.00;98440.03;5055785;28;20470;-76
2023/01/07 04:09:31;;;;;;;0.40;0.40;;;;;;;3.71;100.00;98442.44;5039640;28;20423;-76
2023/01/07 04:11:57;;;;;;;0.43;0.43;;;;;;;3.62;100.00;98411.66;5039624;28;20051;-76
2023/01/07 04:14:23;;;;;;;0.50;0.50;;;;;;;3.62;100.00;98422.28;5039540;28;20044;-75
2023/01/07 04:16:50;;;;;;;0.40;0.40;;;;;;;3.64;100.00;98414.97;5039587;28;20130;-76
2023/01/07 04:19:16;;;;;;;0.40;0.40;;;;;;;3.63;100.00;98408.03;5056163;28;20048;-76
2023/01/07 04:21:42;;;;;;;0.50;0.50;;;;;;;3.55;100.00;98395.66;5072465;28;20054;-75
2023/01/07 04:24:08;;;;;;;0.40;0.40;;;;;;;3.55;100.00;98395.66;5039249;28;20032;-75
2023/01/07 04:26:34;;;;;;;0.40;0.40;;;;;;;3.67;100.00;98393.31;5055473;28;20028;-75
2023/01/07 04:28:59;;;;;;;0.50;0.50;;;;;;;3.80;100.00;98390.78;5039454;28;20038;-76
2023/01/07 04:31:25;;;;;;;0.40;0.40;;;;;;;3.78;100.00;98379.53;5039347;28;20379;-75
2023/01/07 04:33:51;;;;;;;0.50;0.50;;;;;;;3.74;100.00;98367.63;5038993;28;20173;-76
2023/01/07 04:36:16;;;;;;;0.40;0.40;;;;;;;3.70;100.00;98361.88;5039302;28;20024;-76
2023/01/07 04:38:42;;;;;;;0.40;0.40;;;;;;;3.66;100.00;98349.16;5039012;28;20048;-76
2023/01/07 04:41:08;;;;;;;0.50;0.50;;;;;;;3.57;100.00;98350.28;5039186;28;20036;-76
2023/01/07 04:43:35;;;;;;;0.50;0.50;;;;;;;3.45;100.00;98348.16;5072441;28;20029;-75
2023/01/07 04:46:01;;;;;;;0.50;0.50;;;;;;;3.36;100.00;98343.13;5055531;28;20055;-75
2023/01/07 04:48:28;;;;;;;0.50;0.50;;;;;;;3.31;100.00;98335.75;5055630;28;20394;-76
2023/01/07 04:50:53;;;;;;;0.40;0.40;;;;;;;3.29;100.00;98320.00;5055386;28;20041;-75
2023/01/07 04:53:19;;;;;;;0.40;0.40;;;;;;;3.29;100.00;98327.97;5072233;28;20035;-76
2023/01/07 04:55:45;;;;;;;0.50;0.50;;;;;;;3.22;100.00;98311.13;5039137;28;20416;-76
2023/01/07 04:58:10;;;;;;;0.40;0.40;;;;;;;3.14;100.00;98313.09;5055615;28;20033;-76
2023/01/07 05:00:36;;;;;;;0.50;0.50;;;;;;;3.11;100.00;98319.59;5055459;28;20040;-75
2023/01/07 05:03:01;;;;;;;0.40;0.40;;;;;;;2.91;100.00;98298.16;5071880;28;20471;-75
2023/01/07 05:05:27;;;;;;;0.40;0.40;;;;;;;2.79;100.00;98312.91;5039075;28;20474;-75
2023/01/07 05:07:53;;;;;;;0.40;0.40;;;;;;;2.66;100.00;98312.75;5039093;28;20047;-75
2023/01/07 05:10:19;;;;;;;0.47;0.47;;;;;;;2.68;100.00;98316.03;5039037;28;20072;-75
2023/01/07 05:12:45;;;;;;;0.40;0.40;;;;;;;2.63;100.00;98325.38;5038899;28;20540;-76
2023/01/07 05:15:11;;;;;;;0.45;0.45;;;;;;;2.68;100.00;98316.88;5038950;28;20127;-76
2023/01/07 05:17:36;;;;;;;0.50;0.50;;;;;;;2.58;100.00;98306.53;5071763;28;20028;-76
2023/01/07 05:20:03;;;;;;;0.40;0.40;;;;;;;2.48;100.00;98299.88;5038876;28;20379;-75
2023/01/07 05:22:30;;;;;;;0.50;0.50;;;;;;;2.58;100.00;98311.00;5038834;28;20033;-76
2023/01/07 05:24:55;;;;;;;0.57;0.57;;;;;;;2.73;100.00;98303.88;5038740;28;20111;-75
2023/01/07 05:27:21;;;;;;;0.40;0.40;;;;;;;2.75;100.00;98293.03;5038896;28;20132;-76
2023/01/07 05:29:47;;;;;;;0.40;0.40;;;;;;;2.78;100.00;98292.66;5071592;28;20040;-75
2023/01/07 05:32:12;;;;;;;0.40;0.40;;;;;;;2.94;100.00;98287.16;5054800;28;20032;-76
2023/01/07 05:34:38;;;;;;;0.40;0.40;;;;;;;2.99;100.00;98276.81;5038507;28;20052;-76
2023/01/07 05:37:04;;;;;;;0.40;0.40;;;;;;;3.00;100.00;98267.00;5041141;28;20485;-75
2023/01/07 05:39:30;;;;;;;0.40;0.40;;;;;;;3.07;100.00;98274.03;5042432;28;20033;-76
2023/01/07 05:41:55;;;;;;;0.40;0.40;;;;;;;3.06;100.00;98260.94;5042289;28;20467;-76
2023/01/07 05:44:21;;;;;;;0.40;0.40;;;;;;;2.96;100.00;98263.88;5058846;28;20045;-75
2023/01/07 05:46:46;;;;;;;0.40;0.40;;;;;;;3.11;100.00;98255.88;5042262;28;20470;-76
2023/01/07 05:49:12;;;;;;;0.40;0.40;;;;;;;3.07;100.00;98241.34;5058755;28;20127;-76
2023/01/07 05:51:38;;;;;;;0.40;0.40;;;;;;;3.22;100.00;98241.28;5058518;28;20074;-75
2023/01/07 05:54:03;;;;;;;0.45;0.45;;;;;;;3.28;100.00;98235.19;5041766;28;20058;-75
2023/01/07 05:56:29;;;;;;;0.50;0.50;;;;;;;3.34;100.00;98244.25;5042253;28;20032;-76
2023/01/07 05:58:55;;;;;;;0.40;0.40;;;;;;;3.28;100.00;98228.06;5058243;28;20482;-75
2023/01/07 06:01:20;;;;;;;0.50;0.50;;;;;;;3.34;100.00;98221.16;5058646;28;20029;-75
2023/01/07 06:03:46;;;;;;;0.50;0.50;;;;;;;3.33;100.00;98210.72;5041965;28;20437;-76
2023/01/07 06:06:12;;;;;;;0.40;0.40;;;;;;;3.37;100.00;98210.16;5058069;28;20044;-76
2023/01/07 06:08:38;;;;;;;0.50;0.50;;;;;;;3.25;100.00;98193.91;5042044;28;20064;-75
2023/01/07 06:11:07;;;;;;;0.45;0.45;;;;;;;3.26;100.00;98190.25;5058001;28;20466;-76
2023/01/07 06:13:33;;;;;;;0.40;0.40;;;;;;;3.40;100.00;98185.03;5041492;28;20041;-77
2023/01/07 06:16:09;;;;;;;0.40;0.40;;;;;;;3.38;100.00;98195.03;5041721;28;20043;-75
2023/01/07 06:18:35;;;;;;;0.40;0.40;;;;;;;3.35;100.00;98190.91;5058316;28;20032;-76
2023/01/07 06:21:01;;;;;;;0.40;0.40;;;;;;;3.25;100.00;98188.59;5041622;28;20127;-75
2023/01/07 06:23:27;;;;;;;0.50;0.50;;;;;;;3.26;100.00;98184.94;5041534;28;20123;-76
2023/01/07 06:25:53;;;;;;;0.40;0.40;;;;;;;3.25;100.00;98180.63;5041510;28;20119;-76
2023/01/07 06:28:19;;;;;;;0.40;0.40;;;;;;;3.19;100.00;98173.44;5041561;28;20390;-75
2023/01/07 06:30:45;;;;;;;0.50;0.50;;;;;;;3.17;100.00;98169.31;5041388;28;20146;-76
2023/01/07 06:33:11;;;;;;;0.40;0.40;;;;;;;3.04;100.00;98172.69;5041176;28;20534;-75
2023/01/07 06:35:37;;;;;;;0.50;0.50;;;;;;;2.95;100.00;98166.69;5057629;28;20127;-75
2023/01/07 06:38:03;;;;;;;0.40;0.40;;;;;;;2.97;100.00;98167.34;5057492;28;20020;-75
2023/01/07 06:40:29;;;;;;;0.45;0.45;;;;;;;2.96;100.00;98172.81;5041257;28;20128;-75
2023/01/07 06:42:54;;;;;;;0.40;0.40;;;;;;;2.96;100.00;98154.22;5041356;28;20158;-76
2023/01/07 06:45:20;;;;;;;0.50;0.50;;;;;;;3.04;100.00;98156.75;5057735;28;20482;-76
2023/01/07 06:47:47;;;;;;;0.50;0.50;;;;;;;2.96;100.00;98140.97;5056442;28;20079;-76
2023/01/07 06:50:15;;;;;;;0.50;0.50;;;;;;;2.99;100.00;98140.56;5041022;28;20044;-75
2023/01/07 06:52:41;;;;;;;0.40;0.40;;;;;;;3.07;100.00;98140.47;5057402;28;20075;-75
2023/01/07 06:55:07;;;;;;;0.40;0.40;;;;;;;3.05;100.00;98131.88;5040921;28;20514;-76
2023/01/07 06:57:33;;;;;;;0.40;0.40;;;;;;;3.19;100.00;98135.44;5073763;28;20033;-75
2023/01/07 06:59:58;;;;;;;0.50;0.50;;;;;;;3.28;100.00;98131.63;5040822;28;20105;-75
2023/01/07 07:02:26;;;;;;;0.43;0.43;;;;;;;3.45;100.00;98137.47;5057392;28;20032;-76
2023/01/07 07:04:52;;;;;;;0.40;0.40;;;;;;;3.53;100.00;98130.16;5057378;28;20033;-76
2023/01/07 07:07:18;;;;;;;0.40;0.40;;;;;;;3.66;100.00;98125.94;5040727;28;20467;-76
2023/01/07 07:09:44;;;;;;;0.40;0.40;;;;;;;3.65;100.00;98113.66;5057246;28;20120;-75
2023/01/07 07:12:10;;;;;;;0.40;0.40;;;;;;;3.68;100.00;98114.09;5057179;28;20497;-76
2023/01/07 07:14:36;;;;;;;0.40;0.40;;;;;;;3.84;100.00;98118.28;5039020;28;20138;-76
2023/01/07 07:17:02;;;;;;;0.40;0.40;;;;;;;4.03;100.00;98126.53;5040341;28;20151;-76
2023/01/07 07:19:28;;;;;;;0.40;0.40;;;;;;;4.17;100.00;98121.06;5073298;28;20529;-76
2023/01/07 07:21:54;;;;;;;0.40;0.40;;;;;;;4.24;100.00;98125.59;5040463;28;20028;-75
2023/01/07 07:24:19;;;;;;;1.48;0.50;;;;;;;4.34;100.00;98113.56;5040410;28;20129;-76
2023/01/07 07:26:45;;;;;;;0.40;0.40;;;;;;;4.39;100.00;98124.41;5056495;28;20484;-76
2023/01/07 07:29:11;;;;;;;0.50;0.50;;;;;;;4.37;100.00;98107.00;5040325;28;20039;-76
2023/01/07 07:31:37;;;;;;;0.40;0.40;;;;;;;4.46;100.00;98108.44;5040049;28;20032;-75
2023/01/07 07:34:03;;;;;;;0.40;0.40;;;;;;;4.51;100.00;98105.19;5039963;28;20386;-76
2023/01/07 07:36:29;;;;;;;0.40;0.40;;;;;;;4.51;100.00;98089.22;5039784;28;20035;-76
2023/01/07 07:38:55;;;;;;;0.43;0.43;;;;;;;4.55;100.00;98106.41;5040218;28;20056;-75
2023/01/07 07:41:21;;;;;;;0.40;0.40;;;;;;;4.46;100.00;98089.81;5039866;28;20071;-75
2023/01/07 07:43:47;;;;;;;0.40;0.40;;;;;;;4.37;100.00;98083.88;5040022;28;20032;-76
2023/01/07 07:46:12;;;;;;;0.50;0.50;;;;;;;4.33;100.00;98069.34;5040093;28;20040;-76
2023/01/07 07:48:38;;;;;;;1.27;0.60;;;;;;;4.41;100.00;98076.31;5056521;28;20466;-76
2023/01/07 07:51:04;;;;;;;0.45;0.45;;;;;;;4.37;100.00;98067.91;5056076;28;20029;-76
2023/01/07 07:53:30;;;;;;;0.43;0.43;;;;;;;4.52;100.00;98070.38;5039691;28;20025;-75
2023/01/07 07:55:55;;;;;;;0.40;0.40;;;;;;;4.55;100.00;98059.34;5040076;28;20051;-76
2023/01/07 07:58:21;;;;;;;0.45;0.45;;;;;;;4.62;100.00;98073.47;5056058;28;20146;-76
2023/01/07 08:00:46;;;;;;;0.40;0.40;;;;;;;4.64;100.00;98057.31;5039613;28;20044;-76
2023/01/07 08:03:12;;;;;;;0.50;0.50;;;;;;;4.70;100.00;98053.00;5039762;28;20036;-76
2023/01/07 08:05:40;;;;;;;0.40;0.40;;;;;;;4.70;100.00;98058.31;5039682;28;20434;-76
2023/01/07 08:08:08;;;;;;;0.50;0.50;;;;;;;4.69;100.00;98056.69;5072873;28;20055;-76
2023/01/07 08:10:33;;;;;;;0.40;0.40;;;;;;;4.75;100.00;98066.53;5055970;28;20513;-76
2023/01/07 08:12:59;;;;;;;0.40;0.40;;;;;;;4.70;100.00;98053.00;5039550;28;20032;-76
2023/01/07 08:15:25;;;;;;;0.43;0.43;;;;;;;4.74;100.00;98049.75;5056198;28;20367;-75
2023/01/07 08:18:03;;;;;;;0.40;0.40;;;;;;;4.80;100.00;98024.13;5039530;28;20040;-76
2023/01/07 08:20:29;;;;;;;0.73;0.73;;;;;;;4.75;100.00;98006.09;5072172;28;20486;-75
2023/01/07 08:22:58;;;;;;;0.50;0.50;;;;;;;4.89;100.00;98035.38;5039438;28;20037;-76
2023/01/07 08:25:24;;;;;;;0.60;0.60;;;;;;;4.94;100.00;98025.75;5055681;28;20040;-75
2023/01/07 08:27:49;;;;;;;0.68;0.52;;;;;;;4.96;100.00;98015.72;5039369;28;20036;-76
2023/01/07 08:30:16;;;;;;;0.75;0.50;;;;;;;5.00;100.00;98006.31;5039113;28;20045;-76
2023/01/07 08:32:41;;;;;;;0.70;0.70;;;;;;;5.03;100.00;97989.91;5055588;28;20028;-76
2023/01/07 08:35:08;;;;;;;1.65;0.77;;;;;;;4.92;100.00;97987.88;5039324;28;20066;-75
2023/01/07 08:37:33;;;;;;;0.63;0.63;;;;;;;4.88;100.00;97985.84;5055899;28;20048;-76
2023/01/07 08:39:59;;;;;;;0.77;0.77;;;;;;;4.80;100.00;97976.22;5072427;28;20036;-76
2023/01/07 08:42:25;;;;;;;0.40;0.40;;;;;;;4.71;100.00;97970.31;5039103;28;20028;-76
2023/01/07 08:44:51;;;;;;;0.90;0.68;;;;;;;4.68;100.00;97969.88;5055786;28;20467;-76
2023/01/07 08:47:17;;;;;;;0.68;0.68;;;;;;;4.58;100.00;97959.66;5039195;28;20093;-76
2023/01/07 08:49:42;;;;;;;8.52;1.02;;;;;;;4.53;100.00;97951.47;5038786;28;20207;-76
2023/01/07 08:52:08;;;;;;;5.90;1.52;;;;;;;4.46;100.00;97945.34;5038945;28;20200;-76
2023/01/07 08:54:34;;;;;;;0.77;0.55;;;;;;;4.42;100.00;97934.28;5055591;28;20383;-75
2023/01/07 08:56:59;;;;;;;2.10;1.20;;;;;;;4.40;100.00;97939.81;5038901;28;20032;-75
2023/01/07 08:59:25;;;;;;;2.38;0.88;;;;;;;4.37;100.00;97948.19;5038842;28;20035;-76
2023/01/07 09:01:51;;;;;;;1.48;0.95;;;;;;;4.32;100.00;97949.84;5055720;28;20032;-76
2023/01/07 09:04:16;;;;;;;2.17;1.13;;;;;;;4.27;100.00;97944.31;5038978;28;20394;-76
2023/01/07 09:06:42;;;;;;;0.82;0.82;;;;;;;4.26;100.00;97930.22;5055476;28;20086;-76
2023/01/07 09:09:08;;;;;;;2.97;0.93;;;;;;;4.46;100.00;97929.38;5038939;28;20386;-76
2023/01/07 09:11:33;;;;;;;1.15;0.90;;;;;;;4.37;100.00;97924.25;5040863;28;20123;-76
2023/01/07 09:13:59;;;;;;;8.98;1.42;;;;;;;4.56;100.00;97940.41;5042507;28;20071;-76
2023/01/07 09:16:25;;;;;;;0.63;0.57;;;;;;;4.54;100.00;97931.81;5042736;28;20127;-77
2023/01/07 09:18:50;;;;;;;1.75;0.63;;;;;;;4.55;100.00;97933.44;5042674;28;20043;-76
2023/01/07 09:21:18;;;;;;;0.60;0.60;;;;;;;4.65;100.00;97939.16;5042672;28;20039;-76
2023/01/07 09:23:44;;;;;;;0.77;0.77;;;;;;;4.67;100.00;97946.97;5042845;28;20051;-76
2023/01/07 09:26:10;;;;;;;0.60;0.60;;;;;;;4.71;100.00;97945.50;5042588;28;20463;-76
2023/01/07 09:28:35;;;;;;;0.57;0.57;;;;;;;4.76;100.00;97933.22;5042494;28;20381;-76
2023/01/07 09:31:02;;;;;;;1.75;0.50;;;;;;;4.77;100.00;97918.88;5042383;28;20028;-76
2023/01/07 09:33:27;;;;;;;0.65;0.60;;;;;;;4.89;100.00;97926.22;5042440;28;20103;-76
2023/01/07 09:35:55;;;;;;;10.00;1.08;;;;;;;4.91;100.00;97937.50;5042340;28;20493;-76
2023/01/07 09:38:21;;;;;;;0.70;0.70;;;;;;;4.85;100.00;97923.97;5058495;28;20028;-76
2023/01/07 09:40:47;;;;;;;2.45;1.10;;;;;;;4.83;100.00;97923.38;5058849;28;20040;-76
2023/01/07 09:43:18;;;;;;;2.05;0.70;;;;;;;4.94;100.00;97934.41;5042172;28;20039;-76
2023/01/07 09:45:49;;;;;;;2.30;0.80;;;;;;;4.98;100.00;97927.66;5059117;28;20040;-76
2023/01/07 09:48:21;;;;;;;1.33;0.75;;;;;;;4.88;100.00;97932.59;5042138;28;20532;-76
2023/01/07 09:50:49;;;;;;;1.23;0.88;;;;;;;4.96;100.00;97935.03;5058891;28;20052;-76
2023/01/07 09:53:42;;;;;;;1.55;0.80;;;;;;;5.03;100.00;97931.31;5058465;28;20038;-76
2023/01/07 09:56:19;;;;;;;0.77;0.65;;;;;;;4.98;100.00;97914.34;5055760;28;20075;-76
2023/01/07 09:58:47;;;;;;;4.18;1.35;;;;;;;5.09;100.00;97924.31;5074385;28;20021;-76
2023/01/07 10:01:25;;;;;;;1.10;0.70;;;;;;;5.24;100.00;97911.56;5041433;28;20029;-78
2023/01/07 10:04:19;;;;;;;5.15;1.20;;;;;;;6.21;100.00;97910.59;5058378;28;20489;-78
2023/01/07 10:06:57;;;;;;;2.97;1.40;;;;;;;6.24;100.00;97902.97;5058396;28;20028;-78
2023/01/07 10:09:29;;;;;;;2.58;0.95;;;;;;;7.05;100.00;97891.28;5076037;28;20028;-78
2023/01/07 10:12:04;;;;;;;0.82;0.82;;;;;;;7.41;100.00;97888.78;5057886;28;20028;-78
2023/01/07 10:14:48;;;;;;;5.93;1.08;;;;;;;7.31;100.00;97892.03;5058284;28;20037;-79
2023/01/07 10:17:44;;;;;;;1.08;0.90;;;;;;;7.82;100.00;97890.69;5075871;28;20032;-80
2023/01/07 10:20:29;;;;;;;2.95;0.88;;;;;;;8.44;100.00;97900.25;5074616;28;20033;-79
2023/01/07 10:23:01;;;;;;;2.38;1.02;;;;;;;9.80;100.00;97898.00;5074350;28;20112;-79
2023/01/07 10:25:31;;;;;;;4.15;1.20;;;;;;;10.77;100.00;97885.38;5057963;28;20035;-79
2023/01/07 10:28:00;;;;;;;2.08;1.00;;;;;;;11.15;97.84;97886.41;5074180;28;20027;-79
2023/01/07 10:30:29;;;;;;;3.20;0.90;;;;;;;11.57;95.59;97888.50;5041213;28;20039;-79
2023/01/07 10:33:03;;;;;;;0.80;0.80;;;;;;;11.84;93.51;97885.81;5057591;28;20107;-79
2023/01/07 10:35:30;;;;;;;1.10;0.80;;;;;;;12.05;92.39;97892.25;5074388;28;20043;-79
2023/01/07 10:37:59;;;;;;;3.05;1.00;;;;;;;12.12;91.46;97887.47;5073979;28;20028;-78
2023/01/07 10:40:57;;;;;;;1.55;0.93;;;;;;;12.09;89.57;97885.25;5041120;28;20062;-77
2023/01/07 10:43:49;;;;;;;1.77;0.90;;;;;;;11.93;91.29;97892.38;5073288;28;20475;-79
2023/01/07 10:46:41;;;;;;;1.35;1.10;;;;;;;11.37;92.90;97872.94;5072956;28;20040;-79
2023/01/07 10:49:10;;;;;;;2.25;0.85;;;;;;;11.04;95.30;97874.69;5074009;28;20036;-79
2023/01/07 10:51:49;;;;;;;1.65;0.77;;;;;;;10.56;97.00;97876.19;5057704;28;20036;-79
2023/01/07 10:55:00;;;;;;;2.03;0.90;;;;;;;10.75;98.56;97874.84;5073962;28;20039;-79
2023/01/07 10:57:27;;;;;;;0.70;0.70;;;;;;;10.34;100.00;97866.19;5029355;28;20498;-79
2023/01/07 10:59:56;;;;;;;1.13;0.80;;;;;;;10.68;98.35;97870.72;5057011;28;20047;-79
2023/01/07 11:02:26;;;;;;;3.92;1.30;;;;;;;10.66;98.28;97862.06;5056838;28;20029;-80
2023/01/07 11:04:53;;;;;;;4.90;1.30;;;;;;;9.92;100.00;97849.63;5058062;28;20040;-74
2023/01/07 11:08:03;;;;;;;4.53;1.08;;;;;;;9.94;100.00;97855.56;5072982;28;20126;-75
2023/01/07 11:10:33;;;;;;;2.60;0.90;;;;;;;10.10;100.00;97835.97;5024180;28;20074;-75
2023/01/07 11:13:44;;;;;;;3.67;1.08;;;;;;;10.93;99.74;97849.56;5056903;28;20071;-74
2023/01/07 11:16:12;;;;;;;2.17;1.30;;;;;;;10.60;100.00;97834.31;5053484;28;20044;-75
2023/01/07 11:18:57;;;;;;;5.20;1.23;;;;;;;10.86;98.45;97822.03;5056439;28;20033;-74
2023/01/07 11:21:43;;;;;;;1.48;1.08;;;;;;;10.67;99.54;97821.53;5056793;28;20467;-74
2023/01/07 11:24:32;;;;;;;2.65;1.27;;;;;;;11.08;97.56;97797.03;5073399;28;20036;-74
2023/01/07 11:27:18;;;;;;;4.35;1.60;;;;;;;10.98;98.99;97793.16;5040353;28;20062;-74
2023/01/07 11:30:15;;;;;;;5.90;2.65;;;;;;;10.89;98.98;97800.03;5039617;28;20047;-75
2023/01/07 11:32:41;;;;;;;7.72;1.70;;;;;;;9.49;100.00;97797.38;5073022;28;20111;-73
2023/01/07 11:35:18;;;;;;;8.65;2.17;;;;;;;8.64;100.00;97787.44;5072347;28;20123;-74
2023/01/07 11:37:46;;;;;;;1.85;1.05;;;;;;;8.11;100.00;97770.47;5056233;28;20482;-74
2023/01/07 11:40:12;;;;;;;9.00;1.42;;;;;;;8.53;100.00;97787.22;5072914;28;20044;-80
2023/01/07 11:43:04;;;;;;;3.35;1.05;;;;;;;7.90;100.00;97777.19;5056597;28;20417;-79
2023/01/07 11:45:30;;;;;;;;;;;;;;;7.52;100.00;97766.94;5040340;28;20025;-79
2023/01/07 11:48:19;;;;;;;3.90;0.95;;;;;;;7.38;100.00;97747.59;5056567;28;19974;-79
2023/01/07 11:50:55;;;;;;;4.38;1.35;;;;;;;7.56;100.00;97752.84;5064783;28;20044;-79